createdAt,value
2023-05-04T00:00:38.442Z,51.04
2023-05-04T00:01:33.991Z,50.63
2023-05-04T00:02:29.663Z,51.15
2023-05-04T00:03:25.250Z,50.84
2023-05-04T00:04:20.656Z,50.84
2023-05-04T00:05:16.170Z,50.74
2023-05-04T00:06:11.696Z,50.84
2023-05-04T00:07:07.238Z,50.84
2023-05-04T00:08:02.791Z,50.84
2023-05-04T00:08:58.323Z,50.74
2023-05-04T00:09:53.848Z,50.63
2023-05-04T00:10:49.391Z,50.84
2023-05-04T00:11:44.925Z,50.74
2023-05-04T00:12:40.487Z,50.63
2023-05-04T00:13:35.991Z,50.33
2023-05-04T00:14:31.536Z,50.53
2023-05-04T00:15:27.072Z,50.84
2023-05-04T00:16:22.723Z,51.04
2023-05-04T00:17:18.190Z,50.94
2023-05-04T00:18:13.726Z,50.63
2023-05-04T00:18:58.387Z,50.76
2023-05-04T00:19:53.938Z,50.96
2023-05-04T00:20:49.487Z,51.15
2023-05-04T00:21:45.028Z,51.55
2023-05-04T00:22:40.567Z,51.07
2023-05-04T00:23:36.165Z,50.86
2023-05-04T00:24:31.642Z,51.45
2023-05-04T00:25:27.174Z,51.37
2023-05-04T00:26:22.714Z,51.78
2023-05-04T00:27:18.260Z,50.84
2023-05-04T00:28:13.813Z,50.86
2023-05-04T00:29:09.338Z,51.25
2023-05-04T00:30:04.982Z,50.53
2023-05-04T00:31:00.408Z,50.45
2023-05-04T00:31:56.113Z,51.48
2023-05-04T00:32:51.538Z,51.25
2023-05-04T00:33:47.068Z,50.86
2023-05-04T00:34:42.630Z,51.48
2023-05-04T00:35:38.153Z,51.27
2023-05-04T00:36:33.681Z,50.96
2023-05-04T00:37:29.256Z,51.27
2023-05-04T00:38:24.789Z,51.48
2023-05-04T00:39:20.360Z,51.48
2023-05-04T00:40:15.865Z,51.07
2023-05-04T00:41:11.406Z,51.57
2023-05-04T00:42:06.940Z,51.89
2023-05-04T00:43:02.474Z,51.27
2023-05-04T00:43:58.004Z,51.57
2023-05-04T00:44:53.556Z,51.27
2023-05-04T00:45:49.119Z,51.48
2023-05-04T00:46:44.658Z,51.48
2023-05-04T00:47:40.269Z,50.96
2023-05-04T00:48:35.735Z,50.96
2023-05-04T00:49:31.268Z,51.68
2023-05-04T00:50:26.810Z,51.57
2023-05-04T00:51:22.342Z,50.96
2023-05-04T00:52:17.882Z,51.89
2023-05-04T00:53:13.425Z,51.27
2023-05-04T00:54:08.960Z,51.27
2023-05-04T00:55:04.512Z,51.48
2023-05-04T00:56:00.036Z,51.78
2023-05-04T00:56:55.576Z,51.89
2023-05-04T00:57:51.135Z,51.81
2023-05-04T00:58:46.671Z,51.27
2023-05-04T00:59:42.208Z,51.81
2023-05-04T01:00:37.779Z,52.80
2023-05-04T01:01:33.337Z,51.70
2023-05-04T01:02:17.949Z,52.39
2023-05-04T01:03:13.581Z,51.70
2023-05-04T01:04:09.124Z,51.98
2023-05-04T01:05:04.606Z,51.68
2023-05-04T01:06:01.159Z,51.57
2023-05-04T01:06:56.706Z,52.01
2023-05-04T01:07:52.235Z,51.60
2023-05-04T01:08:47.808Z,51.68
2023-05-04T01:09:43.346Z,52.32
2023-05-04T01:10:38.885Z,52.52
2023-05-04T01:11:34.407Z,51.40
2023-05-04T01:12:29.968Z,52.70
2023-05-04T01:13:25.484Z,52.91
2023-05-04T01:14:21.031Z,52.42
2023-05-04T01:15:16.582Z,52.39
2023-05-04T01:16:12.808Z,53.01
2023-05-04T01:17:08.410Z,52.93
2023-05-04T01:18:03.872Z,51.50
2023-05-04T01:18:59.340Z,52.72
2023-05-04T01:19:54.898Z,53.03
2023-05-04T01:20:50.425Z,53.03
2023-05-04T01:21:45.958Z,52.42
2023-05-04T01:22:41.510Z,52.52
2023-05-04T01:23:37.034Z,53.54
2023-05-04T01:24:32.569Z,53.23
2023-05-04T01:25:28.109Z,53.23
2023-05-04T01:26:23.685Z,53.75
2023-05-04T01:27:19.176Z,53.03
2023-05-04T01:28:14.706Z,53.67
2023-05-04T01:29:10.242Z,53.64
2023-05-04T01:30:06.113Z,53.64
2023-05-04T01:31:01.336Z,52.44
2023-05-04T01:31:56.869Z,53.54
2023-05-04T01:32:52.415Z,53.67
2023-05-04T01:33:47.940Z,52.55
2023-05-04T01:34:43.473Z,52.85
2023-05-04T01:35:39.009Z,53.47
2023-05-04T01:36:34.548Z,53.36
2023-05-04T01:37:30.077Z,53.57
2023-05-04T01:38:25.615Z,52.95
2023-05-04T01:39:21.147Z,53.57
2023-05-04T01:40:16.692Z,52.85
2023-05-04T01:41:12.225Z,52.62
2023-05-04T01:42:07.812Z,52.55
2023-05-04T01:43:03.337Z,52.95
2023-05-04T01:43:58.862Z,53.26
2023-05-04T01:44:54.409Z,53.69
2023-05-04T01:45:49.987Z,53.08
2023-05-04T01:46:45.485Z,52.85
2023-05-04T01:47:41.085Z,53.36
2023-05-04T01:48:36.542Z,53.98
2023-05-04T01:49:32.082Z,53.16
2023-05-04T01:50:27.612Z,53.16
2023-05-04T01:51:23.139Z,53.19
2023-05-04T01:52:18.727Z,53.26
2023-05-04T01:53:14.257Z,53.39
2023-05-04T01:54:09.793Z,53.59
2023-05-04T01:55:05.328Z,53.77
2023-05-04T01:56:00.867Z,53.39
2023-05-04T01:56:56.390Z,53.59
2023-05-04T01:57:51.956Z,53.49
2023-05-04T01:58:47.476Z,53.36
2023-05-04T01:59:32.135Z,53.39
2023-05-04T02:00:27.678Z,53.28
2023-05-04T02:01:23.221Z,53.59
2023-05-04T02:02:18.755Z,53.59
2023-05-04T02:03:14.383Z,52.98
2023-05-04T02:04:09.966Z,53.39
2023-05-04T02:05:05.390Z,52.98
2023-05-04T02:06:00.925Z,53.39
2023-05-04T02:06:56.459Z,53.59
2023-05-04T02:07:52.013Z,53.59
2023-05-04T02:08:36.689Z,53.59
2023-05-04T02:09:32.215Z,53.28
2023-05-04T02:10:27.770Z,53.80
2023-05-04T02:11:23.305Z,53.28
2023-05-04T02:12:18.890Z,53.28
2023-05-04T02:13:14.488Z,53.28
2023-05-04T02:14:09.963Z,53.28
2023-05-04T02:15:05.491Z,53.28
2023-05-04T02:16:01.061Z,54.31
2023-05-04T02:16:56.585Z,53.19
2023-05-04T02:17:52.259Z,53.49
2023-05-04T02:18:47.676Z,53.69
2023-05-04T02:19:43.232Z,53.59
2023-05-04T02:20:38.766Z,53.39
2023-05-04T02:21:34.310Z,53.28
2023-05-04T02:22:29.845Z,53.92
2023-05-04T02:23:25.393Z,53.59
2023-05-04T02:24:20.917Z,53.39
2023-05-04T02:25:16.480Z,54.10
2023-05-04T02:26:12.023Z,53.82
2023-05-04T02:27:07.558Z,53.82
2023-05-04T02:27:52.236Z,54.13
2023-05-04T02:28:47.790Z,54.23
2023-05-04T02:29:43.318Z,54.13
2023-05-04T02:30:38.854Z,54.44
2023-05-04T02:31:34.425Z,54.03
2023-05-04T02:32:29.962Z,53.52
2023-05-04T02:33:25.490Z,54.13
2023-05-04T02:34:21.036Z,53.92
2023-05-04T02:35:16.579Z,54.74
2023-05-04T02:36:12.114Z,53.62
2023-05-04T02:37:07.787Z,54.13
2023-05-04T02:38:03.220Z,53.82
2023-05-04T02:38:58.753Z,53.72
2023-05-04T02:39:54.276Z,53.82
2023-05-04T02:40:49.811Z,53.82
2023-05-04T02:41:45.350Z,54.03
2023-05-04T02:42:40.893Z,54.03
2023-05-04T02:43:36.433Z,54.23
2023-05-04T02:44:31.974Z,53.82
2023-05-04T02:45:27.520Z,54.03
2023-05-04T02:46:23.287Z,54.33
2023-05-04T02:47:18.642Z,54.13
2023-05-04T02:48:03.353Z,53.82
2023-05-04T02:48:58.842Z,54.03
2023-05-04T02:49:54.384Z,53.62
2023-05-04T02:50:49.911Z,54.25
2023-05-04T02:51:45.460Z,53.85
2023-05-04T02:52:41.000Z,53.54
2023-05-04T02:53:36.528Z,54.54
2023-05-04T02:54:32.122Z,53.85
2023-05-04T02:55:27.665Z,54.74
2023-05-04T02:56:23.180Z,54.16
2023-05-04T02:57:18.715Z,53.85
2023-05-04T02:58:03.372Z,54.33
2023-05-04T02:58:58.905Z,53.72
2023-05-04T02:59:54.529Z,53.85
2023-05-04T03:00:50.135Z,54.05
2023-05-04T03:01:45.528Z,53.33
2023-05-04T03:02:41.125Z,53.54
2023-05-04T03:03:36.579Z,54.46
2023-05-04T03:04:32.216Z,53.85
2023-05-04T03:05:27.648Z,54.77
2023-05-04T03:06:23.195Z,54.67
2023-05-04T03:07:18.719Z,54.25
2023-05-04T03:08:14.262Z,54.57
2023-05-04T03:08:58.927Z,54.46
2023-05-04T03:09:54.483Z,53.95
2023-05-04T03:10:50.045Z,54.77
2023-05-04T03:11:34.717Z,53.75
2023-05-04T03:12:30.297Z,54.05
2023-05-04T03:13:25.794Z,54.77
2023-05-04T03:14:10.449Z,54.05
2023-05-04T03:15:06.000Z,53.85
2023-05-04T03:16:01.550Z,53.85
2023-05-04T03:16:57.203Z,53.92
2023-05-04T03:17:52.675Z,53.64
2023-05-04T03:18:58.903Z,53.54
2023-05-04T03:19:54.436Z,53.85
2023-05-04T03:20:49.978Z,54.05
2023-05-04T03:21:45.511Z,55.49
2023-05-04T03:22:41.058Z,54.36
2023-05-04T03:23:36.593Z,54.97
2023-05-04T03:24:32.136Z,54.05
2023-05-04T03:25:27.681Z,53.95
2023-05-04T03:26:23.223Z,54.57
2023-05-04T03:27:18.753Z,54.49
2023-05-04T03:28:14.292Z,54.90
2023-05-04T03:29:09.819Z,53.87
2023-05-04T03:30:05.603Z,54.90
2023-05-04T03:31:00.920Z,55.28
2023-05-04T03:31:56.481Z,54.77
2023-05-04T03:32:52.038Z,55.10
2023-05-04T03:33:47.510Z,53.97
2023-05-04T03:34:43.048Z,55.21
2023-05-04T03:35:38.590Z,54.79
2023-05-04T03:36:34.128Z,55.00
2023-05-04T03:37:29.669Z,54.79
2023-05-04T03:38:25.231Z,53.87
2023-05-04T03:39:20.777Z,55.10
2023-05-04T03:40:16.327Z,55.00
2023-05-04T03:41:11.868Z,55.51
2023-05-04T03:42:07.393Z,54.90
2023-05-04T03:43:02.929Z,55.00
2023-05-04T03:43:58.460Z,55.30
2023-05-04T03:44:54.050Z,54.90
2023-05-04T03:45:49.612Z,55.30
2023-05-04T03:46:45.192Z,55.21
2023-05-04T03:47:40.646Z,55.00
2023-05-04T03:48:36.178Z,55.82
2023-05-04T03:49:31.720Z,55.00
2023-05-04T03:50:27.266Z,54.82
2023-05-04T03:51:22.810Z,55.00
2023-05-04T03:52:18.337Z,54.90
2023-05-04T03:53:13.887Z,54.59
2023-05-04T03:54:09.423Z,55.10
2023-05-04T03:55:04.963Z,54.90
2023-05-04T03:56:00.500Z,55.21
2023-05-04T03:56:56.065Z,54.79
2023-05-04T03:57:51.588Z,55.51
2023-05-04T03:58:36.279Z,55.10
2023-05-04T03:59:31.796Z,55.10
2023-05-04T04:00:27.338Z,54.79
2023-05-04T04:01:22.894Z,55.30
2023-05-04T04:02:18.485Z,55.23
2023-05-04T04:03:14.158Z,55.54
2023-05-04T04:04:09.509Z,55.02
2023-05-04T04:04:54.173Z,55.62
2023-05-04T04:05:49.698Z,55.74
2023-05-04T04:06:45.234Z,55.23
2023-05-04T04:07:40.758Z,55.13
2023-05-04T04:08:36.303Z,55.02
2023-05-04T04:09:31.846Z,55.13
2023-05-04T04:10:27.378Z,56.35
2023-05-04T04:11:22.925Z,55.85
2023-05-04T04:12:18.497Z,55.94
2023-05-04T04:13:14.135Z,55.23
2023-05-04T04:14:09.554Z,56.05
2023-05-04T04:15:05.128Z,55.94
2023-05-04T04:16:00.730Z,56.26
2023-05-04T04:16:56.230Z,56.87
2023-05-04T04:17:51.884Z,55.74
2023-05-04T04:18:47.305Z,55.54
2023-05-04T04:19:42.835Z,55.33
2023-05-04T04:20:38.374Z,55.54
2023-05-04T04:21:33.923Z,56.67
2023-05-04T04:22:18.590Z,55.72
2023-05-04T04:23:14.130Z,55.94
2023-05-04T04:24:09.659Z,56.35
2023-05-04T04:25:05.230Z,56.67
2023-05-04T04:26:00.750Z,56.35
2023-05-04T04:26:56.288Z,55.94
2023-05-04T04:27:51.842Z,56.26
2023-05-04T04:28:47.368Z,56.56
2023-05-04T04:29:42.944Z,56.46
2023-05-04T04:30:38.437Z,56.26
2023-05-04T04:31:34.048Z,56.67
2023-05-04T04:32:29.552Z,56.26
2023-05-04T04:33:25.121Z,56.26
2023-05-04T04:34:20.628Z,55.94
2023-05-04T04:35:16.186Z,56.46
2023-05-04T04:36:11.718Z,55.54
2023-05-04T04:37:07.263Z,56.56
2023-05-04T04:37:51.923Z,56.26
2023-05-04T04:38:47.469Z,56.35
2023-05-04T04:39:43.031Z,56.26
2023-05-04T04:40:38.563Z,56.26
2023-05-04T04:41:34.064Z,55.85
2023-05-04T04:42:29.601Z,56.26
2023-05-04T04:43:25.153Z,56.35
2023-05-04T04:44:20.686Z,56.35
2023-05-04T04:45:16.224Z,56.15
2023-05-04T04:46:00.891Z,56.56
2023-05-04T04:46:56.519Z,56.35
2023-05-04T04:47:52.016Z,56.26
2023-05-04T04:48:47.518Z,56.05
2023-05-04T04:49:43.061Z,56.26
2023-05-04T04:50:27.714Z,55.54
2023-05-04T04:51:23.271Z,56.26
2023-05-04T04:52:18.800Z,56.13
2023-05-04T04:53:14.359Z,55.74
2023-05-04T04:54:09.909Z,55.85
2023-05-04T04:55:05.482Z,56.23
2023-05-04T04:56:01.011Z,56.15
2023-05-04T04:56:56.576Z,56.23
2023-05-04T04:57:52.191Z,56.54
2023-05-04T04:58:47.776Z,56.23
2023-05-04T04:59:43.283Z,56.13
2023-05-04T05:00:38.834Z,56.33
2023-05-04T05:01:34.377Z,56.23
2023-05-04T05:02:29.928Z,56.23
2023-05-04T05:03:25.446Z,55.94
2023-05-04T05:04:21.060Z,56.43
2023-05-04T05:05:16.617Z,57.07
2023-05-04T05:06:12.049Z,56.54
2023-05-04T05:07:07.579Z,56.64
2023-05-04T05:08:03.122Z,56.43
2023-05-04T05:08:58.661Z,56.43
2023-05-04T05:09:54.201Z,56.23
2023-05-04T05:10:49.740Z,56.33
2023-05-04T05:11:45.271Z,56.23
2023-05-04T05:12:29.952Z,56.43
2023-05-04T05:13:14.824Z,56.02
2023-05-04T05:14:10.132Z,56.54
2023-05-04T05:15:05.668Z,56.23
2023-05-04T05:16:01.217Z,55.62
2023-05-04T05:16:56.812Z,56.95
2023-05-04T05:17:41.460Z,56.33
2023-05-04T05:18:36.947Z,56.02
2023-05-04T05:19:32.600Z,56.23
2023-05-04T05:20:28.033Z,56.74
2023-05-04T05:21:23.596Z,56.84
2023-05-04T05:22:19.155Z,56.23
2023-05-04T05:23:14.772Z,56.23
2023-05-04T05:24:10.295Z,56.74
2023-05-04T05:25:05.869Z,56.20
2023-05-04T05:26:03.282Z,56.23
2023-05-04T05:26:56.948Z,56.23
2023-05-04T05:27:52.487Z,56.30
2023-05-04T05:28:48.025Z,56.13
2023-05-04T05:29:32.692Z,56.43
2023-05-04T05:30:28.251Z,56.00
2023-05-04T05:31:23.864Z,55.49
2023-05-04T05:32:19.350Z,56.20
2023-05-04T05:33:14.926Z,56.10
2023-05-04T05:34:10.420Z,56.20
2023-05-04T05:35:05.995Z,55.58
2023-05-04T05:36:01.510Z,56.13
2023-05-04T05:36:57.045Z,56.10
2023-05-04T05:37:52.625Z,55.49
2023-05-04T05:38:50.266Z,56.10
2023-05-04T05:39:43.677Z,56.10
2023-05-04T05:40:39.202Z,56.20
2023-05-04T05:41:34.745Z,55.79
2023-05-04T05:42:30.316Z,56.20
2023-05-04T05:43:25.830Z,55.58
2023-05-04T05:44:21.370Z,55.28
2023-05-04T05:45:16.915Z,55.79
2023-05-04T05:46:12.462Z,55.90
2023-05-04T05:47:07.980Z,55.49
2023-05-04T05:48:03.600Z,55.87
2023-05-04T05:48:59.098Z,56.28
2023-05-04T05:49:54.649Z,55.26
2023-05-04T05:50:50.236Z,55.36
2023-05-04T05:51:45.753Z,55.77
2023-05-04T05:52:30.436Z,55.87
2023-05-04T05:53:25.982Z,54.95
2023-05-04T05:54:21.571Z,55.15
2023-05-04T05:55:17.113Z,55.56
2023-05-04T05:56:12.646Z,55.56
2023-05-04T05:57:08.189Z,54.95
2023-05-04T05:57:52.844Z,54.85
2023-05-04T05:58:48.375Z,55.64
2023-05-04T05:59:43.914Z,55.23
2023-05-04T06:00:39.443Z,54.82
2023-05-04T06:01:34.972Z,55.43
2023-05-04T06:02:30.586Z,55.13
2023-05-04T06:03:26.171Z,55.54
2023-05-04T06:04:21.651Z,55.84
2023-05-04T06:05:17.182Z,54.72
2023-05-04T06:06:12.738Z,54.90
2023-05-04T06:07:08.269Z,55.00
2023-05-04T06:08:03.817Z,56.12
2023-05-04T06:08:59.340Z,55.21
2023-05-04T06:09:54.883Z,55.10
2023-05-04T06:10:50.420Z,55.21
2023-05-04T06:11:45.955Z,54.67
2023-05-04T06:12:41.616Z,54.57
2023-05-04T06:13:37.043Z,54.26
2023-05-04T06:14:32.574Z,54.97
2023-05-04T06:15:28.114Z,55.08
2023-05-04T06:16:23.676Z,54.95
2023-05-04T06:17:19.191Z,54.85
2023-05-04T06:18:14.745Z,53.72
2023-05-04T06:19:10.286Z,54.64
2023-05-04T06:20:06.390Z,53.31
2023-05-04T06:21:01.377Z,53.80
2023-05-04T06:21:56.930Z,54.00
2023-05-04T06:22:52.473Z,53.49
2023-05-04T06:23:48.024Z,53.08
2023-05-04T06:24:32.693Z,53.57
2023-05-04T06:25:28.241Z,53.27
2023-05-04T06:26:23.776Z,53.88
2023-05-04T06:27:19.318Z,53.03
2023-05-04T06:28:14.910Z,53.44
2023-05-04T06:29:10.460Z,53.03
2023-05-04T06:30:06.238Z,53.34
2023-05-04T06:31:01.542Z,53.01
2023-05-04T06:31:57.123Z,52.91
2023-05-04T06:32:52.638Z,52.40
2023-05-04T06:33:48.181Z,52.58
2023-05-04T06:34:43.720Z,52.86
2023-05-04T06:35:39.290Z,52.35
2023-05-04T06:36:34.827Z,51.64
2023-05-04T06:37:30.437Z,51.31
2023-05-04T06:38:25.989Z,50.90
2023-05-04T06:39:21.490Z,50.67
2023-05-04T06:40:17.050Z,51.39
2023-05-04T06:41:12.560Z,51.39
2023-05-04T06:41:57.160Z,51.18
2023-05-04T06:42:52.667Z,51.06
2023-05-04T06:43:48.178Z,51.56
2023-05-04T06:44:32.843Z,51.26
2023-05-04T06:45:28.402Z,50.75
2023-05-04T06:46:23.945Z,50.83
2023-05-04T06:47:19.451Z,50.93
2023-05-04T06:48:14.994Z,50.52
2023-05-04T06:49:10.541Z,50.40
2023-05-04T06:50:07.163Z,49.48
2023-05-04T06:51:03.296Z,49.08
2023-05-04T06:51:58.174Z,48.87
2023-05-04T06:52:53.782Z,48.85
2023-05-04T06:53:49.295Z,48.85
2023-05-04T06:54:44.825Z,49.46
2023-05-04T06:55:40.425Z,48.85
2023-05-04T06:56:35.960Z,48.72
2023-05-04T06:57:31.518Z,49.23
2023-05-04T06:58:27.046Z,49.03
2023-05-04T06:59:22.588Z,48.91
2023-05-04T07:00:07.488Z,49.11
2023-05-04T07:01:02.825Z,48.91
2023-05-04T07:01:58.319Z,48.48
2023-05-04T07:02:53.896Z,48.07
2023-05-04T07:03:49.465Z,48.25
2023-05-04T07:04:44.942Z,48.05
2023-05-04T07:05:40.473Z,48.35
2023-05-04T07:06:36.013Z,46.91
2023-05-04T07:07:31.543Z,47.42
2023-05-04T07:08:27.105Z,46.59
2023-05-04T07:09:22.644Z,47.38
2023-05-04T07:10:18.180Z,46.67
2023-05-04T07:11:13.721Z,46.64
2023-05-04T07:12:09.269Z,46.95
2023-05-04T07:13:04.840Z,46.95
2023-05-04T07:14:00.375Z,46.75
2023-05-04T07:14:55.931Z,46.42
2023-05-04T07:15:51.484Z,44.90
2023-05-04T07:16:47.034Z,45.10
2023-05-04T07:17:42.545Z,45.49
2023-05-04T07:18:38.066Z,44.48
2023-05-04T07:19:33.616Z,44.48
2023-05-04T07:20:29.192Z,44.05
2023-05-04T07:21:28.312Z,44.56
2023-05-04T07:22:20.240Z,44.56
2023-05-04T07:23:15.801Z,44.46
2023-05-04T07:24:11.398Z,43.93
2023-05-04T07:25:06.932Z,43.93
2023-05-04T07:26:02.457Z,44.13
2023-05-04T07:26:58.007Z,43.12
2023-05-04T07:27:53.574Z,42.52
2023-05-04T07:28:49.101Z,43.00
2023-05-04T07:29:44.648Z,43.71
2023-05-04T07:30:40.178Z,42.80
2023-05-04T07:31:47.281Z,43.00
2023-05-04T07:32:42.912Z,42.80
2023-05-04T07:33:38.321Z,42.49
2023-05-04T07:34:30.557Z,40.88
2023-05-04T07:35:18.529Z,41.59
2023-05-04T07:36:03.371Z,41.89
2023-05-04T07:36:58.767Z,41.79
2023-05-04T07:37:54.317Z,41.59
2023-05-04T07:38:49.869Z,41.77
2023-05-04T07:39:45.447Z,41.87
2023-05-04T07:40:40.958Z,40.76
2023-05-04T07:41:36.504Z,40.86
2023-05-04T07:42:35.051Z,40.86
2023-05-04T07:43:30.603Z,40.25
2023-05-04T07:44:26.130Z,40.17
2023-05-04T07:45:21.667Z,40.66
2023-05-04T07:46:17.260Z,40.76
2023-05-04T07:47:12.751Z,40.46
2023-05-04T07:48:08.397Z,40.96
2023-05-04T07:49:03.834Z,40.14
2023-05-04T07:49:59.386Z,41.05
2023-05-04T07:50:54.916Z,41.36
2023-05-04T07:51:50.454Z,40.64
2023-05-04T07:52:46.039Z,40.54
2023-05-04T07:53:41.532Z,40.23
2023-05-04T07:54:37.070Z,40.44
2023-05-04T07:55:32.624Z,40.34
2023-05-04T07:56:28.157Z,40.22
2023-05-04T07:57:23.680Z,40.44
2023-05-04T07:58:19.219Z,39.73
2023-05-04T07:59:14.761Z,39.03
2023-05-04T08:00:10.317Z,39.53
2023-05-04T08:01:05.855Z,39.83
2023-05-04T08:02:01.470Z,40.44
2023-05-04T08:02:56.976Z,39.92
2023-05-04T08:03:52.506Z,40.12
2023-05-04T08:04:48.047Z,40.42
2023-05-04T08:05:43.590Z,40.62
2023-05-04T08:06:39.135Z,39.51
2023-05-04T08:07:34.690Z,39.72
2023-05-04T08:08:30.225Z,39.21
2023-05-04T08:09:25.769Z,39.61
2023-05-04T08:10:21.299Z,39.01
2023-05-04T08:11:20.358Z,38.20
2023-05-04T08:12:01.512Z,38.39
2023-05-04T08:12:57.134Z,37.40
2023-05-04T08:13:52.588Z,37.80
2023-05-04T08:14:48.135Z,37.38
2023-05-04T08:15:43.684Z,38.99
2023-05-04T08:16:39.236Z,38.99
2023-05-04T08:17:34.862Z,38.57
2023-05-04T08:18:30.358Z,38.47
2023-05-04T08:19:25.904Z,38.47
2023-05-04T08:20:23.496Z,38.67
2023-05-04T08:21:16.997Z,37.16
2023-05-04T08:22:12.539Z,37.46
2023-05-04T08:23:08.075Z,36.96
2023-05-04T08:24:03.622Z,37.76
2023-05-04T08:24:59.182Z,37.66
2023-05-04T08:25:54.722Z,37.16
2023-05-04T08:27:00.036Z,37.46
2023-05-04T08:27:45.821Z,37.36
2023-05-04T08:28:41.366Z,37.54
2023-05-04T08:29:36.891Z,37.54
2023-05-04T08:30:32.437Z,37.34
2023-05-04T08:31:28.011Z,38.15
2023-05-04T08:32:23.623Z,36.82
2023-05-04T08:33:19.065Z,37.52
2023-05-04T08:34:14.630Z,37.51
2023-05-04T08:35:10.218Z,37.30
2023-05-04T08:36:05.798Z,36.18
2023-05-04T08:37:01.320Z,35.58
2023-05-04T08:37:56.852Z,34.17
2023-05-04T08:38:52.396Z,34.26
2023-05-04T08:39:47.943Z,34.84
2023-05-04T08:40:43.480Z,33.84
2023-05-04T08:41:28.141Z,33.84
2023-05-04T08:42:23.701Z,33.83
2023-05-04T08:43:19.221Z,33.42
2023-05-04T08:44:14.801Z,32.90
2023-05-04T08:45:10.320Z,33.39
2023-05-04T08:46:05.941Z,33.99
2023-05-04T08:47:01.410Z,34.08
2023-05-04T08:47:57.034Z,33.26
2023-05-04T08:48:52.538Z,33.06
2023-05-04T08:49:48.083Z,33.66
2023-05-04T08:50:43.623Z,32.65
2023-05-04T08:51:39.162Z,33.54
2023-05-04T08:52:34.707Z,33.34
2023-05-04T08:53:30.242Z,32.93
2023-05-04T08:54:25.801Z,32.93
2023-05-04T08:55:21.321Z,32.41
2023-05-04T08:56:16.861Z,31.61
2023-05-04T08:57:12.408Z,31.90
2023-05-04T08:58:07.964Z,32.59
2023-05-04T08:59:03.489Z,31.78
2023-05-04T08:59:59.049Z,32.76
2023-05-04T09:00:54.705Z,31.57
2023-05-04T09:01:50.169Z,32.15
2023-05-04T09:02:45.785Z,30.75
2023-05-04T09:03:41.330Z,32.14
2023-05-04T09:04:36.779Z,32.03
2023-05-04T09:05:32.330Z,31.32
2023-05-04T09:06:27.884Z,30.52
2023-05-04T09:07:23.419Z,30.71
2023-05-04T09:08:18.958Z,31.01
2023-05-04T09:09:14.524Z,30.49
2023-05-04T09:10:10.039Z,28.39
2023-05-04T09:11:05.601Z,28.66
2023-05-04T09:12:01.147Z,28.96
2023-05-04T09:12:56.784Z,27.55
2023-05-04T09:13:52.355Z,27.35
2023-05-04T09:14:47.791Z,27.35
2023-05-04T09:15:43.322Z,27.65
2023-05-04T09:16:38.904Z,26.34
2023-05-04T09:17:36.404Z,28.02
2023-05-04T09:18:30.023Z,27.92
2023-05-04T09:19:25.512Z,27.41
2023-05-04T09:20:21.065Z,28.49
2023-05-04T09:21:05.823Z,28.38
2023-05-04T09:22:01.288Z,27.78
2023-05-04T09:22:45.959Z,27.77
2023-05-04T09:23:41.574Z,27.17
2023-05-04T09:24:37.050Z,26.58
2023-05-04T09:25:32.595Z,27.26
2023-05-04T09:26:28.158Z,26.96
2023-05-04T09:27:23.713Z,26.55
2023-05-04T09:28:19.260Z,25.37
2023-05-04T09:29:14.836Z,26.64
2023-05-04T09:30:10.386Z,26.14
2023-05-04T09:31:05.959Z,25.24
2023-05-04T09:32:01.467Z,25.63
2023-05-04T09:32:57.062Z,25.33
2023-05-04T09:33:53.661Z,24.93
2023-05-04T09:34:48.127Z,25.12
2023-05-04T09:35:43.659Z,24.52
2023-05-04T09:36:39.210Z,24.51
2023-05-04T09:37:34.851Z,23.62
2023-05-04T09:38:30.380Z,24.69
2023-05-04T09:39:25.936Z,23.50
2023-05-04T09:40:21.479Z,23.50
2023-05-04T09:41:17.031Z,24.57
2023-05-04T09:42:12.581Z,23.49
2023-05-04T09:43:08.136Z,22.80
2023-05-04T09:44:03.698Z,23.58
2023-05-04T09:44:59.281Z,23.58
2023-05-04T09:45:54.848Z,23.58
2023-05-04T09:46:50.391Z,23.96
2023-05-04T09:47:45.947Z,23.57
2023-05-04T09:48:41.455Z,23.85
2023-05-04T09:49:37.011Z,23.16
2023-05-04T09:50:32.560Z,22.37
2023-05-04T09:51:28.111Z,21.77
2023-05-04T09:52:23.659Z,21.18
2023-05-04T09:53:19.204Z,21.47
2023-05-04T09:54:14.752Z,21.17
2023-05-04T09:55:10.312Z,21.95
2023-05-04T09:56:08.152Z,21.45
2023-05-04T09:57:01.404Z,21.84
2023-05-04T09:57:56.964Z,22.33
2023-05-04T09:58:52.499Z,21.44
2023-05-04T09:59:48.043Z,21.34
2023-05-04T10:00:43.623Z,21.05
2023-05-04T10:01:39.280Z,21.05
2023-05-04T10:02:34.757Z,21.05
2023-05-04T10:03:30.259Z,20.94
2023-05-04T10:04:25.816Z,20.64
2023-05-04T10:05:21.430Z,21.43
2023-05-04T10:06:16.910Z,21.72
2023-05-04T10:07:12.455Z,20.64
2023-05-04T10:08:08.009Z,21.33
2023-05-04T10:09:03.584Z,21.12
2023-05-04T10:09:48.231Z,20.83
2023-05-04T10:10:43.779Z,21.03
2023-05-04T10:11:39.329Z,20.72
2023-05-04T10:12:34.962Z,20.92
2023-05-04T10:13:30.459Z,20.82
2023-05-04T10:14:26.005Z,20.04
2023-05-04T10:15:21.553Z,21.51
2023-05-04T10:16:17.277Z,20.92
2023-05-04T10:17:13.941Z,21.59
2023-05-04T10:18:08.210Z,20.62
2023-05-04T10:19:03.754Z,19.84
2023-05-04T10:19:59.298Z,20.04
2023-05-04T10:20:54.850Z,21.59
2023-05-04T10:21:50.403Z,20.72
2023-05-04T10:22:45.974Z,21.30
2023-05-04T10:23:41.525Z,21.00
2023-05-04T10:24:37.086Z,21.28
2023-05-04T10:25:32.617Z,21.09
2023-05-04T10:26:28.167Z,20.99
2023-05-04T10:27:23.735Z,20.01
2023-05-04T10:28:19.300Z,20.79
2023-05-04T10:29:14.848Z,18.74
2023-05-04T10:30:10.400Z,20.12
2023-05-04T10:31:05.951Z,20.89
2023-05-04T10:32:01.703Z,20.69
2023-05-04T10:32:46.234Z,20.50
2023-05-04T10:33:41.726Z,20.98
2023-05-04T10:34:37.273Z,19.70
2023-05-04T10:35:32.824Z,20.98
2023-05-04T10:36:28.371Z,20.98
2023-05-04T10:37:23.945Z,20.29
2023-05-04T10:38:19.496Z,19.60
2023-05-04T10:39:15.068Z,20.01
2023-05-04T10:40:10.632Z,20.01
2023-05-04T10:41:06.178Z,20.01
2023-05-04T10:42:01.768Z,19.91
2023-05-04T10:42:57.307Z,20.49
2023-05-04T10:43:52.884Z,19.70
2023-05-04T10:44:48.417Z,20.29
2023-05-04T10:45:44.026Z,20.29
2023-05-04T10:46:39.500Z,20.40
2023-05-04T10:47:35.122Z,20.69
2023-05-04T10:48:30.623Z,20.10
2023-05-04T10:49:26.171Z,19.91
2023-05-04T10:50:21.715Z,21.00
2023-05-04T10:51:17.266Z,19.91
2023-05-04T10:52:12.817Z,21.28
2023-05-04T10:53:08.360Z,20.00
2023-05-04T10:54:03.917Z,19.12
2023-05-04T10:54:59.472Z,19.91
2023-05-04T10:55:55.016Z,20.88
2023-05-04T10:56:39.692Z,19.90
2023-05-04T10:57:35.224Z,20.20
2023-05-04T10:58:30.794Z,19.90
2023-05-04T10:59:26.337Z,20.20
2023-05-04T11:00:21.885Z,20.01
2023-05-04T11:01:17.451Z,19.91
2023-05-04T11:02:12.989Z,19.04
2023-05-04T11:03:08.638Z,19.23
2023-05-04T11:04:04.105Z,20.31
2023-05-04T11:04:59.666Z,19.33
2023-05-04T11:05:55.220Z,20.01
2023-05-04T11:06:50.782Z,20.31
2023-05-04T11:07:46.911Z,20.31
2023-05-04T11:08:42.462Z,20.40
2023-05-04T11:09:38.052Z,19.91
2023-05-04T11:10:33.585Z,19.32
2023-05-04T11:11:29.133Z,19.04
2023-05-04T11:12:24.682Z,18.44
2023-05-04T11:13:20.291Z,18.84
2023-05-04T11:14:15.761Z,18.64
2023-05-04T11:15:11.329Z,19.42
2023-05-04T11:16:06.902Z,19.31
2023-05-04T11:17:03.875Z,18.32
2023-05-04T11:17:58.990Z,18.33
2023-05-04T11:18:54.546Z,18.43
2023-05-04T11:19:50.064Z,19.12
2023-05-04T11:20:45.630Z,19.02
2023-05-04T11:21:41.202Z,18.92
2023-05-04T11:22:36.711Z,19.30
2023-05-04T11:23:32.252Z,18.42
2023-05-04T11:24:27.799Z,18.72
2023-05-04T11:25:23.341Z,19.49
2023-05-04T11:26:18.898Z,18.13
2023-05-04T11:27:14.434Z,18.23
2023-05-04T11:28:10.021Z,18.43
2023-05-04T11:29:05.550Z,18.62
2023-05-04T11:30:01.140Z,18.62
2023-05-04T11:30:56.643Z,19.01
2023-05-04T11:31:52.299Z,18.52
2023-05-04T11:32:47.793Z,18.32
2023-05-04T11:33:43.289Z,17.93
2023-05-04T11:34:28.111Z,19.59
2023-05-04T11:35:23.494Z,19.49
2023-05-04T11:36:19.041Z,18.62
2023-05-04T11:37:14.596Z,19.31
2023-05-04T11:38:10.153Z,19.41
2023-05-04T11:39:05.695Z,19.12
2023-05-04T11:40:01.230Z,19.32
2023-05-04T11:40:56.783Z,18.54
2023-05-04T11:41:52.326Z,19.23
2023-05-04T11:42:47.927Z,18.44
2023-05-04T11:43:43.468Z,18.44
2023-05-04T11:44:39.013Z,18.74
2023-05-04T11:45:34.566Z,18.25
2023-05-04T11:46:30.124Z,19.22
2023-05-04T11:47:25.653Z,19.51
2023-05-04T11:48:22.205Z,19.31
2023-05-04T11:49:17.778Z,19.31